EGPFEGEC

Guest
Details From EGPF - Glasgow
To EGEC - Campbeltown
Flight Number -
Tags generated
Created
Modified
Stats Distance 50 nm / 92 km
Max Altitude 100 ft / 30 m
Waypoints 3
Social Downloads 2
Likes 0
Share VATSIM

Download

Looking for another format? Having issues loading an existing format? Contact us
Advertisement - Login to hide

Notes

Basic altitude profile: - Ascent Rate: 2500ft/min - Ascent Speed: 250kts - Cruise Altitude: 35000ft - Cruise Speed: 420kts - Descent Rate: 1500ft/min - Descent Speed: 250kts Options: - Use NATs: yes - Use PACOTS: yes - Use low airways: yes - Use high airways: yes

Route

EGPF GOW EGEC

ID Type Via Altitude Latitude Longitude Leg Dist Tot Dist Heading (true) Name
O EGPF APT - 0 ft / 0 m 55.87173˚ -4.43365˚ - 0 nm - Glasgow
GOW VOR - 100 ft / 30 m 55.87050˚ -4.44573˚ 0 nm 0 nm 260° / 260° GLASGOW VOR-DME
O EGEC APT - 0 ft / 0 m 55.43731˚ -5.68625˚ 49 nm 49 nm 239° / 238° Campbeltown

Altitude Profile

Advertisement - Login to hide

EGPF

Details ICAO EGPF (GLA)
Name Glasgow
Region United Kingdom
Timezone Europe/London (UTC+0.0)
Stats Elevation 26 ft / 8 m (AMSL)
Location 55.871728° -4.433648°
Runways 1
Magnetic Variation 2.733° W

METAR

EGPF 121220Z AUTO VRB02KT 9999 FEW015 SCT020 BKN043 M02/M04 Q1002

Decode

TAF

TAF TAF EGPF 121105Z 1212/1312 VRB03KT 9999 FEW030 TEMPO 1213/1220 6000 -RADZ BKN010 BECMG 1215/1218 21010KT PROB40 TEMPO 1215/1219 3000 RADZ BKN005 PROB40 TEMPO 1216/1219 21015G25KT PROB30 TEMPO 1220/1302 7000 SHRA BKN012 TEMPO 1302/1308 6000 SHRA BKN009 PROB40 TEMPO 1304/1307 23018G28KT PROB30 TEMPO 1308/1312 23015G25KT 4000 -SHRASN SHRAGS BKN007

Decode

Departure Runways

ID Width Length Bearing (true) Bearing (mag) Surface Threshold Offset Overrun Length
05 151 ft / 46 m 8,721 ft / 2,658 m 46.34° 49.07° Asphalt 0 ft / 0 m 499 ft / 152 m
23 151 ft / 46 m 8,721 ft / 2,658 m 226.37° 229.10° Asphalt 1,004 ft / 306 m 0 ft / 0 m

EGEC

Details ICAO EGEC (CAL)
Name Campbeltown
Region United Kingdom
Timezone Europe/London (UTC+0.0)
Stats Elevation 44 ft / 13 m (AMSL)
Location 55.437314° -5.686252°
Runways 1
Magnetic Variation 3.173° W

METAR

EGEC 121220Z 19010KT 9999 FEW025 05/03 Q1000

Decode

TAF

Not found

Destination Runways

ID Width Length Bearing (true) Bearing (mag) Surface Threshold Offset Overrun Length
11 151 ft / 46 m 9,976 ft / 3,041 m 106.08° 109.25° Asphalt 535 ft / 163 m 0 ft / 0 m
29 151 ft / 46 m 9,976 ft / 3,041 m 286.12° 289.29° Asphalt 1,332 ft / 406 m 0 ft / 0 m

Popular Alternatives